Time;durP1;ratioP1;P1;durP2;ratioP2;P2;SDS_P1;SDS_P2;PMS_P1;PMS_P2;Temp;Humidity;BMP_temperature;BMP_pressure;BME280_temperature;BME280_humidity;BME280_pressure;Samples;Min_cycle;Max_cycle;Signal;HPM_P1;HPM_P2
2022/01/06 00:01:38;;;;;;;;;21.75;20.50;;;;;-147.17;100.00;50401.09;4974353;28;51195;-58
2022/01/06 00:04:03;;;;;;;;;20.25;17.75;;;;;-147.17;100.00;50414.88;4985595;28;50958;-58
2022/01/06 00:06:30;;;;;;;;;23.75;16.75;;;;;-147.17;100.00;50405.03;4976625;28;51289;-60
2022/01/06 00:08:57;;;;;;;;;20.25;18.25;;;;;-147.17;100.00;50432.59;4994722;28;51248;-60
2022/01/06 00:11:23;;;;;;;;;20.75;18.00;;;;;-147.17;100.00;50375.50;4994605;28;51323;-59
2022/01/06 00:14:01;;;;;;;;;19.00;17.50;;;;;-147.17;100.00;50412.91;4988217;28;50979;-59
2022/01/06 00:16:42;;;;;;;;;19.50;18.25;;;;;-147.17;100.00;50434.56;4993702;28;51021;-58
2022/01/06 00:24:20;;;;;;;;;18.25;16.50;;;;;-147.17;100.00;50403.06;4994093;28;51159;-59
2022/01/06 00:26:48;;;;;;;;;16.50;16.50;;;;;-147.17;100.00;50395.19;4977219;28;51003;-59
2022/01/06 00:29:14;;;;;;;;;17.00;16.25;;;;;-147.17;100.00;50399.13;4992286;28;51025;-58
2022/01/06 00:31:39;;;;;;;;;12.00;12.00;;;;;-147.17;100.00;50401.09;4974289;28;50964;-60
2022/01/06 00:34:10;;;;;;;;;15.00;13.50;;;;;-147.17;100.00;50405.03;4993267;28;51232;-59
2022/01/06 00:36:37;;;;;;;;;15.75;15.75;;;;;-147.17;100.00;50436.53;4994546;28;51195;-59
2022/01/06 00:39:03;;;;;;;;;17.25;16.25;;;;;-147.17;100.00;50375.50;4993909;28;51835;-59
2022/01/06 00:41:29;;;;;;;;;17.50;15.25;;;;;-147.17;100.00;50403.06;4993147;28;50972;-58
2022/01/06 00:43:54;;;;;;;;;14.00;14.00;;;;;-147.17;100.00;50375.50;4994376;28;51147;-58
2022/01/06 00:46:19;;;;;;;;;18.00;16.25;;;;;-147.17;100.00;50434.56;4994618;28;51195;-60
2022/01/06 00:48:45;;;;;;;;;16.00;15.75;;;;;-147.17;100.00;50399.13;4993712;28;50911;-60
2022/01/06 00:51:10;;;;;;;;;18.00;16.25;;;;;-147.17;100.00;50418.81;4988215;28;51157;-60
2022/01/06 00:53:35;;;;;;;;;19.75;18.00;;;;;-147.17;100.00;50401.09;4984548;28;50992;-60
2022/01/06 00:56:01;;;;;;;;;21.75;19.50;;;;;-147.17;100.00;50418.81;4985824;28;51385;-60
2022/01/06 00:58:26;;;;;;;;;17.25;17.00;;;;;-147.17;100.00;50403.06;4967353;28;51174;-59
2022/01/06 01:00:52;;;;;;;;;25.75;20.50;;;;;-147.17;100.00;50395.19;4978042;28;51111;-60
2022/01/06 01:03:20;;;;;;;;;18.75;17.25;;;;;-147.17;100.00;50387.31;4992597;28;51126;-60
2022/01/06 01:05:48;;;;;;;;;16.25;13.25;;;;;-147.17;100.00;50389.28;4981796;28;50999;-60
2022/01/06 01:08:13;;;;;;;;;13.00;13.00;;;;;-147.17;100.00;50407.00;4989900;28;51836;-60
2022/01/06 01:10:39;;;;;;;;;16.50;16.50;;;;;-147.17;100.00;50379.44;4992109;28;53083;-60
2022/01/06 01:13:10;;;;;;;;;16.25;15.75;;;;;-147.17;100.00;50422.75;4994126;28;51041;-60
2022/01/06 01:15:43;;;;;;;;;20.25;19.00;;;;;-147.17;100.00;50397.16;4984368;28;51425;-60
2022/01/06 01:18:10;;;;;;;;;15.50;15.00;;;;;-147.17;100.00;50399.13;4988702;28;53005;-60
2022/01/06 01:20:35;;;;;;;;;17.00;16.25;;;;;-147.17;100.00;50418.81;4992514;28;51444;-60
2022/01/06 01:23:01;;;;;;;;;18.75;17.75;;;;;-147.17;100.00;50410.94;4990882;28;51721;-59
2022/01/06 01:25:26;;;;;;;;;17.25;16.25;;;;;-147.17;100.00;50395.19;4993058;28;51016;-60
2022/01/06 01:27:55;;;;;;;;;15.50;14.50;;;;;-147.17;100.00;50375.50;4993024;28;51859;-60
2022/01/06 01:30:22;;;;;;;;;17.75;16.50;;;;;-147.17;100.00;50385.34;4983707;28;51109;-59
2022/01/06 01:32:51;;;;;;;;;18.00;16.50;;;;;-147.17;100.00;50387.31;4993261;28;51092;-59
2022/01/06 01:35:17;;;;;;;;;19.50;17.25;;;;;-147.17;100.00;50385.34;4991963;28;50866;-60
2022/01/06 01:37:43;;;;;;;;;17.00;15.50;;;;;-147.17;100.00;50397.16;4993397;28;51810;-60
2022/01/06 01:40:10;;;;;;;;;17.00;15.00;;;;;-147.17;100.00;50395.19;4984012;28;52306;-60
2022/01/06 01:42:36;;;;;;;;;16.00;16.00;;;;;-147.17;100.00;50397.16;4983875;28;51189;-60
2022/01/06 01:45:05;;;;;;;;;22.00;17.00;;;;;-147.17;100.00;50401.09;4993206;28;51355;-60
2022/01/06 01:47:44;;;;;;;;;20.25;18.25;;;;;-147.17;100.00;50381.41;4991359;28;52061;-60
2022/01/06 01:50:18;;;;;;;;;12.75;12.00;;;;;-147.17;100.00;50381.41;4960273;28;51287;-60
2022/01/06 01:52:49;;;;;;;;;20.25;17.75;;;;;-147.17;100.00;50397.16;4975412;28;50974;-59
2022/01/06 01:55:18;;;;;;;;;15.25;13.25;;;;;-147.17;100.00;50422.75;4992042;28;51341;-60
2022/01/06 01:57:43;;;;;;;;;15.00;15.00;;;;;-147.17;100.00;50412.91;4986244;28;51952;-60
2022/01/06 02:00:12;;;;;;;;;17.25;17.25;;;;;-147.17;100.00;50405.03;4975049;28;51096;-60
2022/01/06 02:02:38;;;;;;;;;18.50;15.50;;;;;-147.17;100.00;50391.25;4975781;28;51174;-59
2022/01/06 02:05:05;;;;;;;;;17.00;15.00;;;;;-147.17;100.00;50383.38;4991955;28;51377;-59
2022/01/06 02:07:32;;;;;;;;;10.25;10.25;;;;;-147.17;100.00;50397.16;4992878;28;52744;-59
2022/01/06 02:09:57;;;;;;;;;11.75;11.75;;;;;-147.17;100.00;50405.03;4993096;28;51005;-59
2022/01/06 02:12:29;;;;;;;;;13.50;13.25;;;;;-147.17;100.00;50397.16;4990023;28;52870;-58
2022/01/06 02:14:54;;;;;;;;;15.75;15.00;;;;;-147.17;100.00;50395.19;4996473;28;51336;-59
2022/01/06 02:17:20;;;;;;;;;16.00;14.75;;;;;-147.17;100.00;50373.53;4983402;28;52786;-58
2022/01/06 02:19:59;;;;;;;;;14.00;13.50;;;;;-147.17;100.00;50383.38;4975688;28;51098;-60
2022/01/06 02:22:25;;;;;;;;;16.25;14.00;;;;;-147.17;100.00;50407.00;4992216;28;51280;-58
2022/01/06 02:24:51;;;;;;;;;15.50;11.75;;;;;-147.17;100.00;50420.78;4992921;28;51082;-58
2022/01/06 02:27:20;;;;;;;;;18.75;18.75;;;;;-147.17;100.00;50363.69;4988507;28;52066;-60
2022/01/06 02:29:50;;;;;;;;;19.00;17.50;;;;;-147.17;100.00;50410.94;4987577;28;51198;-60
2022/01/06 02:32:18;;;;;;;;;15.00;15.00;;;;;-147.17;100.00;50375.50;4970844;28;51090;-59
2022/01/06 02:34:47;;;;;;;;;21.00;16.00;;;;;-147.17;100.00;50385.34;4989377;28;51389;-61
2022/01/06 02:37:14;;;;;;;;;15.25;15.25;;;;;-147.17;100.00;50393.22;4985228;28;52001;-58
2022/01/06 02:39:43;;;;;;;;;15.25;15.00;;;;;-147.17;100.00;50389.28;4990661;28;51202;-58
2022/01/06 02:42:09;;;;;;;;;19.50;16.50;;;;;-147.17;100.00;50375.50;4981901;28;51500;-59
2022/01/06 02:44:38;;;;;;;;;18.00;15.75;;;;;-147.17;100.00;50369.59;4986069;28;51270;-60
2022/01/06 02:47:05;;;;;;;;;15.50;13.25;;;;;-147.17;100.00;50367.63;4985863;28;52943;-58
2022/01/06 02:49:30;;;;;;;;;16.50;16.50;;;;;-147.17;100.00;50391.25;4985943;28;50957;-60
2022/01/06 02:51:56;;;;;;;;;19.50;15.75;;;;;-147.17;100.00;50414.88;4992374;28;51043;-59
2022/01/06 02:54:21;;;;;;;;;18.50;15.50;;;;;-147.17;100.00;50403.06;4988567;28;51029;-59
2022/01/06 02:56:48;;;;;;;;;15.00;12.25;;;;;-147.17;100.00;50401.09;4988670;28;51745;-59
2022/01/06 02:59:14;;;;;;;;;18.25;15.75;;;;;-147.17;100.00;50379.44;4984497;28;51059;-59
2022/01/06 03:01:41;;;;;;;;;17.75;15.00;;;;;-147.17;100.00;50403.06;4991731;28;51066;-59
2022/01/06 03:04:08;;;;;;;;;16.00;15.00;;;;;-147.17;100.00;50399.13;4984347;28;52874;-60
2022/01/06 03:06:33;;;;;;;;;13.50;13.00;;;;;-147.17;100.00;50375.50;4988698;28;52011;-59
2022/01/06 03:08:58;;;;;;;;;16.25;15.25;;;;;-147.17;100.00;50395.19;4992165;28;50992;-60
2022/01/06 03:11:26;;;;;;;;;16.75;16.25;;;;;-147.17;100.00;50414.88;4987391;28;51710;-59
2022/01/06 03:13:53;;;;;;;;;17.00;15.75;;;;;-147.17;100.00;50395.19;4985948;28;51325;-59
2022/01/06 03:16:19;;;;;;;;;15.50;14.75;;;;;-147.17;100.00;50371.56;4990428;28;52669;-58
2022/01/06 03:18:44;;;;;;;;;17.25;17.00;;;;;-147.17;100.00;50347.94;4982523;28;51043;-60
2022/01/06 03:21:09;;;;;;;;;16.00;15.75;;;;;-147.17;100.00;50407.00;4991841;28;51191;-60
2022/01/06 03:23:35;;;;;;;;;16.00;15.00;;;;;-147.17;100.00;50347.94;4992873;28;51002;-60
2022/01/06 03:26:00;;;;;;;;;12.75;11.50;;;;;-147.17;100.00;50369.59;4982498;28;51335;-60
2022/01/06 03:28:26;;;;;;;;;15.00;14.25;;;;;-147.17;100.00;50385.34;4989343;28;51113;-58
2022/01/06 03:30:51;;;;;;;;;16.50;15.50;;;;;-147.17;100.00;50377.47;4988892;28;51184;-58
2022/01/06 03:33:16;;;;;;;;;19.50;16.50;;;;;-147.17;100.00;50383.38;4969857;28;52317;-59
2022/01/06 03:35:42;;;;;;;;;12.75;12.00;;;;;-147.17;100.00;50391.25;4976232;28;52609;-58
2022/01/06 03:38:07;;;;;;;;;11.25;11.25;;;;;-147.17;100.00;50389.28;4974160;28;51078;-58
2022/01/06 03:40:33;;;;;;;;;15.50;15.00;;;;;-147.17;100.00;50377.47;4971145;28;51670;-59
2022/01/06 03:42:58;;;;;;;;;11.50;10.00;;;;;-147.17;100.00;50397.16;4970879;28;51242;-59
2022/01/06 03:45:23;;;;;;;;;11.25;11.00;;;;;-147.17;100.00;50365.66;4989616;28;51696;-59
2022/01/06 03:47:49;;;;;;;;;14.00;12.50;;;;;-147.17;100.00;50375.50;4987680;28;50924;-59
2022/01/06 03:50:16;;;;;;;;;11.00;11.00;;;;;-147.17;100.00;50371.56;4991840;28;51467;-59
2022/01/06 03:52:41;;;;;;;;;14.50;12.25;;;;;-147.17;100.00;50385.34;4990329;28;50953;-59
2022/01/06 03:55:10;;;;;;;;;13.00;12.00;;;;;-147.17;100.00;50387.31;4973401;28;54092;-59
2022/01/06 03:57:36;;;;;;;;;11.75;11.75;;;;;-147.17;100.00;50381.41;4995538;28;51159;-59
2022/01/06 04:00:04;;;;;;;;;14.00;12.00;;;;;-147.17;100.00;50369.59;4991385;28;51293;-59
2022/01/06 04:02:29;;;;;;;;;11.50;11.50;;;;;-147.17;100.00;50355.81;4976685;28;50973;-59
2022/01/06 04:04:55;;;;;;;;;10.75;9.75;;;;;-147.17;100.00;50395.19;4993668;28;51233;-59
2022/01/06 04:07:20;;;;;;;;;10.00;10.00;;;;;-147.17;100.00;50412.91;4993711;28;50987;-59
2022/01/06 04:09:45;;;;;;;;;12.00;11.25;;;;;-147.17;100.00;50399.13;4993893;28;50928;-59
2022/01/06 04:12:11;;;;;;;;;14.25;11.00;;;;;-147.17;100.00;50381.41;4993397;28;51105;-59
2022/01/06 04:14:37;;;;;;;;;10.50;10.25;;;;;-147.17;100.00;50375.50;4994128;28;51039;-59
2022/01/06 04:17:07;;;;;;;;;13.25;11.75;;;;;-147.17;100.00;50397.16;4993957;28;51198;-59
2022/01/06 04:19:33;;;;;;;;;12.00;12.00;;;;;-147.17;100.00;50373.53;4973243;28;51116;-59
2022/01/06 04:21:59;;;;;;;;;11.50;10.50;;;;;-147.17;100.00;50403.06;4991917;28;51274;-59
2022/01/06 04:24:24;;;;;;;;;13.25;12.00;;;;;-147.17;100.00;50389.28;4993030;28;51749;-59
2022/01/06 04:26:49;;;;;;;;;11.25;11.00;;;;;-147.17;100.00;50401.09;4986571;28;51045;-59
2022/01/06 04:29:15;;;;;;;;;13.25;10.00;;;;;-147.17;100.00;50381.41;4993420;28;51557;-59
2022/01/06 04:31:40;;;;;;;;;13.25;11.25;;;;;-147.17;100.00;50363.69;4991571;28;51041;-59
2022/01/06 04:34:06;;;;;;;;;15.25;12.75;;;;;-147.17;100.00;50401.09;4993462;28;52376;-59
2022/01/06 04:36:31;;;;;;;;;12.75;11.50;;;;;-147.17;100.00;50399.13;4989725;28;51013;-59
2022/01/06 04:38:56;;;;;;;;;12.00;11.50;;;;;-147.17;100.00;50379.44;4994063;28;51665;-59
2022/01/06 04:41:22;;;;;;;;;12.00;12.00;;;;;-147.17;100.00;50391.25;4992899;28;51135;-59
2022/01/06 04:43:47;;;;;;;;;14.75;13.25;;;;;-147.17;100.00;50359.75;4994024;28;52152;-59
2022/01/06 04:46:12;;;;;;;;;8.75;8.75;;;;;-147.17;100.00;50375.50;4994285;28;51055;-60
2022/01/06 04:48:38;;;;;;;;;12.50;11.00;;;;;-147.17;100.00;50361.72;4986785;28;51058;-59
2022/01/06 04:51:04;;;;;;;;;11.25;10.75;;;;;-147.17;100.00;50395.19;4990072;28;51133;-59
2022/01/06 04:53:29;;;;;;;;;7.00;6.00;;;;;-147.17;100.00;50385.34;4980709;28;51349;-60
2022/01/06 04:55:57;;;;;;;;;11.00;11.00;;;;;-147.17;100.00;50387.31;4994074;28;51061;-60
2022/01/06 04:58:23;;;;;;;;;9.00;9.00;;;;;-147.17;100.00;50355.81;4993132;28;50877;-60
2022/01/06 05:00:48;;;;;;;;;13.75;12.00;;;;;-147.17;100.00;50375.50;4993381;28;51066;-59
2022/01/06 05:03:13;;;;;;;;;11.75;10.00;;;;;-147.17;100.00;50387.31;4993645;28;51920;-59
2022/01/06 05:05:39;;;;;;;;;12.25;11.25;;;;;-147.17;100.00;50353.84;4992307;28;51127;-60
2022/01/06 05:08:04;;;;;;;;;10.50;10.00;;;;;-147.17;100.00;50393.22;4987118;28;51297;-60
2022/01/06 05:10:30;;;;;;;;;14.25;11.75;;;;;-147.17;100.00;50357.78;4990209;28;51160;-60
2022/01/06 05:12:55;;;;;;;;;11.25;11.00;;;;;-147.17;100.00;50397.16;4993132;28;51817;-60
2022/01/06 05:15:20;;;;;;;;;11.25;11.00;;;;;-147.17;100.00;50393.22;5004326;28;51152;-61
2022/01/06 05:17:46;;;;;;;;;11.50;11.00;;;;;-147.17;100.00;50363.69;4994811;28;50920;-59
2022/01/06 05:20:12;;;;;;;;;15.00;12.75;;;;;-147.17;100.00;50351.88;4971444;28;51135;-61
2022/01/06 05:22:43;;;;;;;;;10.75;10.50;;;;;-147.17;100.00;50369.59;4962720;28;51853;-59
2022/01/06 05:25:09;;;;;;;;;11.00;9.75;;;;;-147.17;100.00;50371.56;4983158;28;51048;-59
2022/01/06 05:27:35;;;;;;;;;10.00;9.25;;;;;-147.17;100.00;50371.56;4992004;28;51090;-59
2022/01/06 05:30:00;;;;;;;;;11.75;10.75;;;;;-147.17;100.00;50383.38;4990758;28;50949;-59
2022/01/06 05:32:26;;;;;;;;;13.75;12.75;;;;;-147.17;100.00;50369.59;4992117;28;50902;-59
2022/01/06 05:34:51;;;;;;;;;10.25;10.25;;;;;-147.17;100.00;50371.56;4985783;28;50923;-58
2022/01/06 05:37:17;;;;;;;;;14.00;12.00;;;;;-147.17;100.00;50371.56;4988597;28;51427;-60
2022/01/06 05:39:42;;;;;;;;;15.00;14.00;;;;;-147.17;100.00;50355.81;4993523;28;51167;-59
2022/01/06 05:42:08;;;;;;;;;10.75;9.75;;;;;-147.17;100.00;50351.88;4987885;28;51630;-59
2022/01/06 05:44:34;;;;;;;;;13.00;11.50;;;;;-147.17;100.00;50371.56;4972393;28;50993;-58
2022/01/06 05:47:00;;;;;;;;;10.50;10.25;;;;;-147.17;100.00;50375.50;4982828;28;51412;-60
2022/01/06 05:49:26;;;;;;;;;12.25;11.50;;;;;-147.17;100.00;50355.81;4971596;28;51255;-59
2022/01/06 05:51:51;;;;;;;;;12.50;12.25;;;;;-147.17;100.00;50375.50;4988452;28;52378;-59
2022/01/06 05:54:17;;;;;;;;;11.50;10.75;;;;;-147.17;100.00;50375.50;4990336;28;51223;-59
2022/01/06 05:56:42;;;;;;;;;14.25;12.25;;;;;-147.17;100.00;50379.44;4990047;28;51125;-59
2022/01/06 05:59:07;;;;;;;;;12.25;12.00;;;;;-147.17;100.00;50373.53;4990703;28;51130;-60
2022/01/06 06:01:33;;;;;;;;;14.50;13.50;;;;;-147.17;100.00;50379.44;4991405;28;52044;-58
2022/01/06 06:03:58;;;;;;;;;12.25;10.50;;;;;-147.17;100.00;50383.38;4973685;28;51211;-60
2022/01/06 06:06:23;;;;;;;;;12.75;11.75;;;;;-147.17;100.00;50381.41;4978108;28;51145;-59
2022/01/06 06:08:49;;;;;;;;;11.25;10.75;;;;;-147.17;100.00;50367.63;4992843;28;51324;-59
2022/01/06 06:11:14;;;;;;;;;13.25;11.00;;;;;-147.17;100.00;50391.25;4992515;28;51219;-59
2022/01/06 06:13:39;;;;;;;;;11.00;10.00;;;;;-147.17;100.00;50355.81;4992017;28;50990;-59
2022/01/06 06:16:05;;;;;;;;;9.00;9.00;;;;;-147.17;100.00;50367.63;4993756;28;51519;-59
2022/01/06 06:18:30;;;;;;;;;14.25;13.50;;;;;-147.17;100.00;50357.78;4990586;28;51107;-59
2022/01/06 06:20:56;;;;;;;;;11.75;11.75;;;;;-147.17;100.00;50328.25;4988318;28;52020;-59
2022/01/06 06:23:21;;;;;;;;;10.25;10.25;;;;;-147.17;100.00;50344.00;4991412;28;50941;-60
2022/01/06 06:25:46;;;;;;;;;11.00;11.00;;;;;-147.17;100.00;50367.63;4988227;28;51068;-59
2022/01/06 06:28:12;;;;;;;;;7.75;7.25;;;;;-147.17;100.00;50369.59;4987954;28;51021;-60
2022/01/06 06:30:37;;;;;;;;;12.50;12.00;;;;;-147.17;100.00;50377.47;4983962;28;51940;-59
2022/01/06 06:33:03;;;;;;;;;11.00;11.00;;;;;-147.17;100.00;50373.53;4974926;28;51242;-59
2022/01/06 06:35:30;;;;;;;;;11.00;11.00;;;;;-147.17;100.00;50387.31;4990043;28;51305;-59
2022/01/06 06:37:55;;;;;;;;;11.50;10.50;;;;;-147.17;100.00;50371.56;4992810;28;50967;-59
2022/01/06 06:40:22;;;;;;;;;11.75;11.00;;;;;-147.17;100.00;50367.63;4971526;28;53281;-59
2022/01/06 06:42:48;;;;;;;;;16.25;15.00;;;;;-147.17;100.00;50373.53;4981638;28;51135;-59
2022/01/06 06:45:14;;;;;;;;;11.75;10.25;;;;;-147.17;100.00;50371.56;4991932;28;51110;-60
2022/01/06 06:47:39;;;;;;;;;12.50;12.00;;;;;-147.17;100.00;50387.31;4986925;28;51344;-58
2022/01/06 06:50:05;;;;;;;;;13.75;12.50;;;;;-147.17;100.00;50387.31;4965035;28;52818;-59
2022/01/06 06:52:31;;;;;;;;;15.00;14.00;;;;;-147.17;100.00;50367.63;4989254;28;51320;-58
2022/01/06 06:54:56;;;;;;;;;14.50;13.50;;;;;-147.17;100.00;50391.25;4991818;28;51254;-59
2022/01/06 06:57:22;;;;;;;;;11.00;11.00;;;;;-147.17;100.00;50365.66;4984378;28;51334;-58
2022/01/06 06:59:48;;;;;;;;;11.50;11.25;;;;;-147.17;100.00;50383.38;4991757;28;50927;-60
2022/01/06 07:02:13;;;;;;;;;14.00;13.25;;;;;-147.17;100.00;50387.31;4985730;28;51188;-58
2022/01/06 07:04:38;;;;;;;;;13.00;12.00;;;;;-147.17;100.00;50365.66;4990921;28;51145;-59
2022/01/06 07:07:04;;;;;;;;;16.00;16.00;;;;;-147.17;100.00;50359.75;4985856;28;51094;-59
2022/01/06 07:09:29;;;;;;;;;15.75;14.50;;;;;-147.17;100.00;50361.72;4986009;28;53068;-59
2022/01/06 07:11:54;;;;;;;;;11.75;10.50;;;;;-147.17;100.00;50389.28;4987201;28;50980;-59
2022/01/06 07:14:20;;;;;;;;;14.25;13.50;;;;;-147.17;100.00;50391.25;4991358;28;50966;-58
2022/01/06 07:16:45;;;;;;;;;14.75;14.50;;;;;-147.17;100.00;50393.22;4982470;28;51225;-60
2022/01/06 07:19:11;;;;;;;;;16.25;14.50;;;;;-147.17;100.00;50391.25;4981012;28;51244;-59
2022/01/06 07:21:36;;;;;;;;;13.50;12.50;;;;;-147.17;100.00;50383.38;4988302;28;51127;-60
2022/01/06 07:24:01;;;;;;;;;11.00;11.00;;;;;-147.17;100.00;50379.44;4990778;28;51109;-60
2022/01/06 07:26:27;;;;;;;;;16.50;16.25;;;;;-147.17;100.00;50391.25;4973678;28;50907;-61
2022/01/06 07:28:52;;;;;;;;;13.75;12.50;;;;;-147.17;100.00;50407.00;4979189;28;51186;-60
2022/01/06 07:31:18;;;;;;;;;15.00;13.50;;;;;-147.17;100.00;50371.56;4995184;28;50972;-60
2022/01/06 07:33:43;;;;;;;;;17.00;15.00;;;;;-147.17;100.00;50367.63;4993156;28;54114;-59
2022/01/06 07:36:09;;;;;;;;;10.75;10.50;;;;;-147.17;100.00;50412.91;4964489;28;52525;-59
2022/01/06 07:38:34;;;;;;;;;14.75;13.75;;;;;-147.17;100.00;50405.03;4985251;28;51559;-58
2022/01/06 07:40:59;;;;;;;;;13.75;12.75;;;;;-147.17;100.00;50408.97;4992294;28;50914;-60
2022/01/06 07:43:25;;;;;;;;;19.25;16.25;;;;;-147.17;100.00;50383.38;4991912;28;51095;-59
2022/01/06 07:45:50;;;;;;;;;15.50;13.50;;;;;-147.17;100.00;50381.41;4994345;28;51266;-60
2022/01/06 07:48:19;;;;;;;;;11.00;11.00;;;;;-147.17;100.00;50418.81;4994965;28;51735;-60
2022/01/06 07:50:47;;;;;;;;;15.25;11.00;;;;;-147.17;100.00;50403.06;4994461;28;51106;-60
2022/01/06 07:53:12;;;;;;;;;14.50;13.25;;;;;-147.17;100.00;50422.75;4988560;28;51092;-60
2022/01/06 07:55:38;;;;;;;;;22.50;20.00;;;;;-147.17;100.00;50430.63;4995530;28;50916;-61
2022/01/06 07:58:04;;;;;;;;;13.50;12.75;;;;;-147.17;100.00;50418.81;4995057;28;51943;-59
2022/01/06 08:00:29;;;;;;;;;13.50;13.50;;;;;-147.17;100.00;50426.69;4989558;28;50891;-60
2022/01/06 08:02:55;;;;;;;;;15.00;13.25;;;;;-147.17;100.00;50458.19;4986822;28;51119;-59
2022/01/06 08:05:24;;;;;;;;;15.00;13.25;;;;;-147.17;100.00;50414.88;4973780;28;51457;-60
2022/01/06 08:07:49;;;;;;;;;13.00;13.00;;;;;-147.17;100.00;50387.31;4993197;28;51285;-60
2022/01/06 08:10:15;;;;;;;;;16.50;13.50;;;;;-147.17;100.00;50389.28;4994543;28;51020;-59
2022/01/06 08:12:40;;;;;;;;;17.00;17.00;;;;;-147.17;100.00;50430.63;4987392;28;52087;-60
2022/01/06 08:15:07;;;;;;;;;17.00;16.25;;;;;-147.17;100.00;50424.72;4995310;28;51098;-59
2022/01/06 08:17:33;;;;;;;;;15.75;13.00;;;;;-147.17;100.00;50403.06;4994168;28;52427;-60
2022/01/06 08:19:59;;;;;;;;;16.00;12.75;;;;;-147.17;100.00;50405.03;4994464;28;51084;-58
2022/01/06 08:22:24;;;;;;;;;15.25;14.75;;;;;-147.17;100.00;50426.69;4988436;28;51142;-59
2022/01/06 08:24:52;;;;;;;;;10.25;10.25;;;;;-147.17;100.00;50401.09;4993286;28;51148;-60
2022/01/06 08:27:18;;;;;;;;;17.00;14.75;;;;;-147.17;100.00;50442.44;4975442;28;53073;-60
2022/01/06 08:29:44;;;;;;;;;17.00;16.25;;;;;-147.17;100.00;50414.88;4994610;28;50998;-59
2022/01/06 08:32:09;;;;;;;;;19.25;16.50;;;;;-147.17;100.00;50399.13;4974153;28;51245;-60
2022/01/06 08:34:35;;;;;;;;;17.50;16.75;;;;;-147.17;100.00;50397.16;4984071;28;51107;-59
2022/01/06 08:37:00;;;;;;;;;18.25;16.50;;;;;-147.17;100.00;50440.47;4975882;28;51809;-60
2022/01/06 08:39:25;;;;;;;;;13.75;13.50;;;;;-147.17;100.00;50403.06;4987312;28;51074;-60
2022/01/06 08:41:53;;;;;;;;;17.00;16.25;;;;;-147.17;100.00;50391.25;4993781;28;51324;-60
2022/01/06 08:44:19;;;;;;;;;17.25;16.75;;;;;-147.17;100.00;50422.75;4993199;28;51088;-59
2022/01/06 08:46:46;;;;;;;;;18.25;16.00;;;;;-147.17;100.00;50379.44;4993953;28;51041;-63
2022/01/06 08:49:12;;;;;;;;;17.00;17.00;;;;;-147.17;100.00;50391.25;4988934;28;51151;-62
2022/01/06 08:51:38;;;;;;;;;19.00;15.75;;;;;-147.17;100.00;50422.75;4990680;28;51194;-63
2022/01/06 08:54:06;;;;;;;;;16.50;14.25;;;;;-147.17;100.00;50424.72;4994360;28;51113;-62
2022/01/06 08:56:31;;;;;;;;;19.00;16.00;;;;;-147.17;100.00;50430.63;4987241;28;52895;-62
2022/01/06 08:58:57;;;;;;;;;16.00;14.75;;;;;-147.17;100.00;50450.31;4984052;28;52159;-63
2022/01/06 09:01:22;;;;;;;;;16.50;15.00;;;;;-147.17;100.00;50387.31;4991693;28;51150;-63
2022/01/06 09:03:47;;;;;;;;;16.25;16.00;;;;;-147.17;100.00;50446.38;4993931;28;50972;-63
2022/01/06 09:06:13;;;;;;;;;17.00;15.50;;;;;-147.17;100.00;50424.72;4986815;28;51406;-64
2022/01/06 09:08:39;;;;;;;;;16.50;16.25;;;;;-147.17;100.00;50430.63;4966230;28;51138;-62
2022/01/06 09:11:04;;;;;;;;;17.25;17.00;;;;;-147.17;100.00;50403.06;4990270;28;51086;-61
2022/01/06 09:13:29;;;;;;;;;17.50;17.00;;;;;-147.17;100.00;50446.38;4977205;28;51209;-62
2022/01/06 09:15:56;;;;;;;;;20.25;18.25;;;;;-147.17;100.00;50466.06;4984015;28;54995;-61
2022/01/06 09:18:21;;;;;;;;;18.50;16.25;;;;;-147.17;100.00;50450.31;4983808;28;51090;-61
2022/01/06 09:20:47;;;;;;;;;21.25;18.25;;;;;-147.17;100.00;50412.91;4988707;28;51252;-62
2022/01/06 09:23:13;;;;;;;;;17.00;14.25;;;;;-147.17;100.00;50477.88;4988904;28;51322;-62
2022/01/06 09:25:38;;;;;;;;;16.75;16.00;;;;;-147.17;100.00;50426.69;4988870;28;51255;-66
2022/01/06 09:28:04;;;;;;;;;14.00;13.25;;;;;-147.17;100.00;50462.13;4986113;28;51481;-64
2022/01/06 09:30:29;;;;;;;;;18.75;16.00;;;;;-147.17;100.00;50442.44;4987108;28;51395;-63
2022/01/06 09:32:54;;;;;;;;;13.25;13.00;;;;;-147.17;100.00;50424.72;4984421;28;51182;-64
2022/01/06 09:35:21;;;;;;;;;18.75;16.00;;;;;-147.17;100.00;50466.06;4985491;28;52204;-64
2022/01/06 09:37:47;;;;;;;;;20.50;17.75;;;;;-147.17;100.00;50442.44;4988797;28;51640;-64
2022/01/06 09:40:13;;;;;;;;;19.00;17.00;;;;;-147.17;100.00;50422.75;4982974;28;51383;-62
2022/01/06 09:42:41;;;;;;;;;16.50;13.75;;;;;-147.17;100.00;50422.75;4985027;28;51418;-63
2022/01/06 09:45:07;;;;;;;;;17.50;14.75;;;;;-147.17;100.00;50505.44;4979101;28;51669;-64
2022/01/06 09:47:33;;;;;;;;;21.00;18.50;;;;;-147.17;100.00;50450.31;4990699;28;51193;-61
2022/01/06 09:49:59;;;;;;;;;16.25;14.00;;;;;-147.17;100.00;50485.75;4984962;28;51190;-60
2022/01/06 09:52:25;;;;;;;;;19.75;17.50;;;;;-147.17;100.00;50485.75;4983757;28;51398;-61
2022/01/06 09:54:50;;;;;;;;;17.75;16.25;;;;;-147.17;100.00;50446.38;4989778;28;51599;-60
2022/01/06 09:57:16;;;;;;;;;15.25;14.50;;;;;-147.17;100.00;50489.69;4991117;28;51221;-61
2022/01/06 09:59:44;;;;;;;;;12.50;12.50;;;;;-147.17;100.00;50493.63;4992907;28;51087;-63
2022/01/06 10:02:16;;;;;;;;;16.75;13.50;;;;;-147.17;100.00;50462.13;4984536;28;51102;-61
2022/01/06 10:04:47;;;;;;;;;18.25;16.50;;;;;-147.17;100.00;50501.50;4981496;28;52948;-61
2022/01/06 10:07:15;;;;;;;;;19.25;17.75;;;;;-147.17;100.00;50485.75;4992388;28;51245;-61
2022/01/06 10:09:40;;;;;;;;;22.75;22.75;;;;;-147.17;100.00;50475.91;4975425;28;51058;-62
2022/01/06 10:12:11;;;;;;;;;14.75;12.75;;;;;-147.17;100.00;50462.13;4955267;28;51132;-62
2022/01/06 10:14:42;;;;;;;;;12.00;11.50;;;;;-147.17;100.00;50483.78;4976335;28;52879;-62
2022/01/06 10:17:08;;;;;;;;;14.50;13.75;;;;;-147.17;100.00;50477.88;4975873;28;50961;-63
2022/01/06 10:19:36;;;;;;;;;11.50;11.50;;;;;-147.17;100.00;50495.59;4992926;28;51095;-62
2022/01/06 10:22:02;;;;;;;;;11.25;9.50;;;;;-147.17;100.00;50489.69;4987989;28;51174;-63
2022/01/06 10:24:28;;;;;;;;;15.25;14.00;;;;;-147.17;100.00;50477.88;4974539;28;54067;-63
2022/01/06 10:26:55;;;;;;;;;12.25;12.25;;;;;-147.17;100.00;50481.81;4992683;28;51081;-63
2022/01/06 10:29:21;;;;;;;;;7.25;6.75;;;;;-147.17;100.00;50483.78;4992648;28;51093;-62
2022/01/06 10:31:47;;;;;;;;;18.00;14.50;;;;;-147.17;100.00;50527.09;4984479;28;51070;-62
2022/01/06 10:34:13;;;;;;;;;17.25;16.50;;;;;-147.17;100.00;50503.47;4990723;28;51824;-64
2022/01/06 10:36:39;;;;;;;;;14.75;13.50;;;;;-147.17;100.00;50505.44;4977443;28;51166;-66
2022/01/06 10:39:08;;;;;;;;;14.00;13.50;;;;;-147.17;100.00;50521.19;4992467;28;51011;-63
2022/01/06 10:41:34;;;;;;;;;13.50;12.25;;;;;-147.17;100.00;50521.19;4969915;28;51345;-63
2022/01/06 10:44:00;;;;;;;;;13.50;13.25;;;;;-147.17;100.00;50493.63;4987263;28;52023;-60
2022/01/06 10:46:35;;;;;;;;;19.00;16.25;;;;;-147.17;100.00;50513.31;4971456;28;51276;-62
2022/01/06 10:49:14;;;;;;;;;14.75;13.00;;;;;-147.17;100.00;50521.19;4979037;28;51336;-60
2022/01/06 10:51:42;;;;;;;;;12.50;11.00;;;;;-147.17;100.00;50540.88;4951402;28;51263;-60
2022/01/06 10:54:14;;;;;;;;;13.00;11.75;;;;;-147.17;100.00;50552.69;4987495;28;51814;-61
2022/01/06 10:56:39;;;;;;;;;15.25;14.75;;;;;-147.17;100.00;50562.53;4989203;28;51276;-60